Burton Joyce, United Kingdom
Current Conditions -  °F | °C
As of 12:50 PM on Friday 19 Dec 2014 (Local Time) from EGNX Reporting Station
Few Clouds Few Clouds  
Wind Chill: 38°   Ceiling: Unl
Heat Index: 46°   Visibility: 6mi
Dew Point: 37°   Wind: 28mph
Humidity: 71%   Direction: 250°WSW
Pressure: 29.91"   Gusts: NA
Location:  52.99°N, 1.03°W
Report Text: EGNX 191250Z 25024KT 9999 FEW040 08/03 Q1013
Loading
Personal Weather Stations






























Interactive Weather Map New forecast layout! Learn more

10-Day Weather Forecast

Advertisements
Track Severe Weather on mobile